createdAt,value
2023-03-21T00:00:41.130Z,20.80
2023-03-21T00:03:08.973Z,12.97
2023-03-21T00:05:40.328Z,18.30
2023-03-21T00:08:07.196Z,20.27
2023-03-21T00:10:42.138Z,17.73
2023-03-21T00:13:15.209Z,15.80
2023-03-21T00:16:05.333Z,18.17
2023-03-21T00:18:46.529Z,14.10
2023-03-21T00:21:44.023Z,19.73
2023-03-21T00:24:02.237Z,13.20
2023-03-21T00:26:28.848Z,15.37
2023-03-21T00:28:55.473Z,13.80
2023-03-21T00:31:22.130Z,15.23
2023-03-21T00:33:48.607Z,17.40
2023-03-21T00:36:16.020Z,13.30
2023-03-21T00:38:42.912Z,19.03
2023-03-21T00:41:23.224Z,16.10
2023-03-21T00:43:55.503Z,17.00
2023-03-21T00:46:25.223Z,13.50
2023-03-21T00:48:52.022Z,16.07
2023-03-21T00:51:26.364Z,21.73
2023-03-21T00:53:58.047Z,15.20
2023-03-21T00:56:24.635Z,18.10
2023-03-21T00:58:51.238Z,17.93
2023-03-21T01:01:18.302Z,17.03
2023-03-21T01:03:51.003Z,18.47
2023-03-21T01:06:19.552Z,16.80
2023-03-21T01:08:52.533Z,16.87
2023-03-21T01:11:25.294Z,26.47
2023-03-21T01:13:59.605Z,17.70
2023-03-21T01:16:31.744Z,15.63
2023-03-21T01:18:59.585Z,19.20
2023-03-21T01:21:26.406Z,21.23
2023-03-21T01:23:52.898Z,18.27
2023-03-21T01:26:19.423Z,15.93
2023-03-21T01:28:46.232Z,17.10
2023-03-21T01:31:15.395Z,15.77
2023-03-21T01:33:42.361Z,15.43
2023-03-21T01:36:14.514Z,18.13
2023-03-21T01:38:42.604Z,20.80
2023-03-21T01:41:33.529Z,16.47
2023-03-21T01:44:07.596Z,17.97
2023-03-21T01:46:49.331Z,22.37
2023-03-21T01:49:35.101Z,25.30
2023-03-21T01:52:13.997Z,18.10
2023-03-21T01:54:43.169Z,15.77
2023-03-21T01:57:14.479Z,18.70
2023-03-21T01:59:44.108Z,18.60
2023-03-21T02:02:17.944Z,19.97
2023-03-21T02:04:55.853Z,19.80
2023-03-21T02:07:28.834Z,22.83
2023-03-21T02:09:56.392Z,20.00
2023-03-21T02:12:23.257Z,19.80
2023-03-21T02:14:51.783Z,21.47
2023-03-21T02:17:36.624Z,19.03
2023-03-21T02:20:22.000Z,17.23
2023-03-21T02:23:23.872Z,22.90
2023-03-21T02:26:11.394Z,21.50
2023-03-21T02:29:03.733Z,22.20
2023-03-21T02:32:17.914Z,19.97
2023-03-21T02:35:09.585Z,26.97
2023-03-21T02:37:46.807Z,22.23
2023-03-21T02:40:25.566Z,19.90
2023-03-21T02:43:01.461Z,26.27
2023-03-21T02:45:47.830Z,22.93
2023-03-21T02:48:29.385Z,20.93
2023-03-21T02:51:00.650Z,18.00
2023-03-21T02:53:33.760Z,19.37
2023-03-21T02:56:02.189Z,20.20
2023-03-21T02:58:31.974Z,33.13
2023-03-21T03:00:58.505Z,19.97
2023-03-21T03:03:33.871Z,18.70
2023-03-21T03:06:03.308Z,23.10
2023-03-21T03:08:41.372Z,28.80
2023-03-21T03:11:28.746Z,22.77
2023-03-21T03:14:21.161Z,20.63
2023-03-21T03:17:17.249Z,21.37
2023-03-21T03:19:55.149Z,19.97
2023-03-21T03:22:31.904Z,17.73
2023-03-21T03:25:19.533Z,25.80
2023-03-21T03:27:52.888Z,21.23
2023-03-21T03:30:19.696Z,17.00
2023-03-21T03:32:56.515Z,17.33
2023-03-21T03:35:24.531Z,19.97
2023-03-21T03:37:56.561Z,18.03
2023-03-21T03:40:36.265Z,21.73
2023-03-21T03:43:11.331Z,20.63
2023-03-21T03:45:47.429Z,17.80
2023-03-21T03:48:17.489Z,18.97
2023-03-21T03:51:03.391Z,20.77
2023-03-21T03:53:35.141Z,17.23
2023-03-21T03:56:02.691Z,22.13
2023-03-21T03:58:42.919Z,20.63
2023-03-21T04:01:11.861Z,17.43
2023-03-21T04:03:48.910Z,23.33
2023-03-21T04:06:17.809Z,20.03
2023-03-21T04:08:44.588Z,18.63
2023-03-21T04:11:14.281Z,18.30
2023-03-21T04:13:41.421Z,17.53
2023-03-21T04:16:09.078Z,16.77
2023-03-21T04:18:35.872Z,22.00
2023-03-21T04:21:03.588Z,28.13
2023-03-21T04:23:30.035Z,23.70
2023-03-21T04:25:57.387Z,21.00
2023-03-21T04:28:24.092Z,19.90
2023-03-21T04:31:01.210Z,19.87
2023-03-21T04:33:31.494Z,20.37
2023-03-21T04:35:59.222Z,23.40
2023-03-21T04:38:30.700Z,16.63
2023-03-21T04:40:58.021Z,17.93
2023-03-21T04:43:24.673Z,21.10
2023-03-21T04:45:52.096Z,19.47
2023-03-21T04:48:19.656Z,22.60
2023-03-21T04:50:46.894Z,22.70
2023-03-21T04:53:13.326Z,22.67
2023-03-21T04:55:39.873Z,22.43
2023-03-21T04:58:06.400Z,19.70
2023-03-21T05:00:37.394Z,18.50
2023-03-21T05:03:09.217Z,19.23
2023-03-21T05:05:37.573Z,20.10
2023-03-21T05:08:05.594Z,18.70
2023-03-21T05:10:32.495Z,21.90
2023-03-21T05:12:58.970Z,20.30
2023-03-21T05:15:25.447Z,18.50
2023-03-21T05:17:51.937Z,23.57
2023-03-21T05:20:19.021Z,19.67
2023-03-21T05:22:46.198Z,17.83
2023-03-21T05:25:13.435Z,19.93
2023-03-21T05:27:45.104Z,18.87
2023-03-21T05:30:16.449Z,14.13
2023-03-21T05:32:42.993Z,19.37
2023-03-21T05:35:10.603Z,14.70
2023-03-21T05:37:38.437Z,16.30
2023-03-21T05:40:07.117Z,16.50
2023-03-21T05:42:33.767Z,20.63
2023-03-21T05:45:00.661Z,18.57
2023-03-21T05:47:27.180Z,23.20
2023-03-21T05:49:53.740Z,18.97
2023-03-21T05:52:20.457Z,15.77
2023-03-21T05:54:46.935Z,19.60
2023-03-21T05:57:13.580Z,17.50
2023-03-21T05:59:39.982Z,17.90
2023-03-21T06:02:06.445Z,16.50
2023-03-21T06:04:33.008Z,15.40
2023-03-21T06:06:59.564Z,19.17
2023-03-21T06:09:26.501Z,19.13
2023-03-21T06:11:55.438Z,17.73
2023-03-21T06:14:22.828Z,17.60
2023-03-21T06:16:49.382Z,18.47
2023-03-21T06:19:16.249Z,18.30
2023-03-21T06:21:42.814Z,22.60
2023-03-21T06:24:10.266Z,21.47
2023-03-21T06:26:36.975Z,19.47
2023-03-21T06:29:03.936Z,24.53
2023-03-21T06:31:30.961Z,16.73
2023-03-21T06:33:57.426Z,20.67
2023-03-21T06:36:23.975Z,20.07
2023-03-21T06:38:50.519Z,21.47
2023-03-21T06:41:17.124Z,21.87
2023-03-21T06:43:44.326Z,22.60
2023-03-21T06:46:11.402Z,16.80
2023-03-21T06:48:39.237Z,21.17
2023-03-21T06:51:06.020Z,18.43
2023-03-21T06:53:35.104Z,20.57
2023-03-21T06:56:02.532Z,22.93
2023-03-21T06:58:28.998Z,18.17
2023-03-21T07:00:58.887Z,20.70
2023-03-21T07:03:25.766Z,22.87
2023-03-21T07:05:52.232Z,23.67
2023-03-21T07:08:19.539Z,24.17
2023-03-21T07:10:46.951Z,25.77
2023-03-21T07:13:14.130Z,21.57
2023-03-21T07:15:41.334Z,21.73
2023-03-21T07:18:09.665Z,20.50
2023-03-21T07:20:38.088Z,21.57
2023-03-21T07:23:05.255Z,21.53
2023-03-21T07:25:31.968Z,19.97
2023-03-21T07:27:58.506Z,22.07
2023-03-21T07:30:25.226Z,24.47
2023-03-21T07:32:53.365Z,23.53
2023-03-21T07:35:19.898Z,25.30
2023-03-21T07:37:46.637Z,21.93
2023-03-21T07:40:13.289Z,19.57
2023-03-21T07:42:41.184Z,21.53
2023-03-21T07:45:09.732Z,25.30
2023-03-21T07:47:36.619Z,23.00
2023-03-21T07:50:04.612Z,28.93
2023-03-21T07:52:33.265Z,24.60
2023-03-21T07:55:00.024Z,23.00
2023-03-21T07:57:26.485Z,27.83
2023-03-21T07:59:52.994Z,23.20
2023-03-21T08:02:19.759Z,24.77
2023-03-21T08:04:46.725Z,26.97
2023-03-21T08:07:13.566Z,28.63
2023-03-21T08:09:40.037Z,24.47
2023-03-21T08:12:08.436Z,25.13
2023-03-21T08:14:36.696Z,23.13
2023-03-21T08:17:05.257Z,24.77
2023-03-21T08:19:32.332Z,27.33
2023-03-21T08:22:02.332Z,23.67
2023-03-21T08:24:29.028Z,25.37
2023-03-21T08:26:55.726Z,25.10
2023-03-21T08:29:23.048Z,20.53
2023-03-21T08:31:49.524Z,23.07
2023-03-21T08:34:17.937Z,24.83
2023-03-21T08:36:44.460Z,23.20
2023-03-21T08:39:11.074Z,29.37
2023-03-21T08:41:37.903Z,25.80
2023-03-21T08:44:05.788Z,21.53
2023-03-21T08:46:33.021Z,19.60
2023-03-21T08:48:59.631Z,21.83
2023-03-21T08:51:26.143Z,25.60
2023-03-21T08:53:52.638Z,24.30
2023-03-21T08:56:19.136Z,29.13
2023-03-21T08:58:45.639Z,22.80
2023-03-21T09:01:15.713Z,30.07
2023-03-21T09:03:43.502Z,39.00
2023-03-21T09:06:14.131Z,23.97
2023-03-21T09:08:42.064Z,31.83
2023-03-21T09:11:09.940Z,28.73
2023-03-21T09:13:36.937Z,24.73
2023-03-21T09:16:05.182Z,24.77
2023-03-21T09:18:55.535Z,32.17
2023-03-21T09:21:23.665Z,25.10
2023-03-21T09:23:52.897Z,22.23
2023-03-21T09:26:19.958Z,20.37
2023-03-21T09:28:47.349Z,27.63
2023-03-21T09:31:16.353Z,22.60
2023-03-21T09:33:43.856Z,28.40
2023-03-21T09:36:16.953Z,22.57
2023-03-21T09:38:45.667Z,22.67
2023-03-21T09:41:33.786Z,23.17
2023-03-21T09:44:15.578Z,21.87
2023-03-21T09:46:45.332Z,24.57
2023-03-21T09:49:18.894Z,23.80
2023-03-21T09:51:48.745Z,21.63
2023-03-21T09:54:24.914Z,26.40
2023-03-21T09:56:59.339Z,20.60
2023-03-21T09:59:33.603Z,18.00
2023-03-21T10:02:01.779Z,20.43
2023-03-21T10:04:28.865Z,25.53
2023-03-21T10:07:00.574Z,21.53
2023-03-21T10:09:29.135Z,25.40
2023-03-21T10:12:09.757Z,21.50
2023-03-21T10:14:41.011Z,22.47
2023-03-21T10:17:22.631Z,22.10
2023-03-21T10:20:12.254Z,22.80
2023-03-21T10:22:39.079Z,18.80
2023-03-21T10:25:07.072Z,19.83
2023-03-21T10:27:36.941Z,23.77
2023-03-21T10:30:07.392Z,16.13
2023-03-21T10:32:34.922Z,20.23
2023-03-21T10:35:04.941Z,26.93
2023-03-21T10:37:32.544Z,37.80
2023-03-21T10:39:59.440Z,21.07
2023-03-21T10:42:29.624Z,20.47
2023-03-21T10:44:57.578Z,16.17
2023-03-21T10:47:32.501Z,18.90
2023-03-21T10:50:12.347Z,17.07
2023-03-21T10:52:46.775Z,16.90
2023-03-21T10:55:29.825Z,19.50
2023-03-21T10:58:10.933Z,18.47
2023-03-21T11:00:41.305Z,21.60
2023-03-21T11:03:21.598Z,18.30
2023-03-21T11:05:48.967Z,18.40
2023-03-21T11:08:18.795Z,18.40
2023-03-21T11:10:55.137Z,18.10
2023-03-21T11:13:27.963Z,24.80
2023-03-21T11:16:03.613Z,19.23
2023-03-21T11:18:33.304Z,22.80
2023-03-21T11:21:06.163Z,16.73
2023-03-21T11:23:35.341Z,17.70
2023-03-21T11:26:02.851Z,19.07
2023-03-21T11:28:37.449Z,17.93
2023-03-21T11:31:05.667Z,18.20
2023-03-21T11:33:44.326Z,18.97
2023-03-21T11:36:19.610Z,14.93
2023-03-21T11:38:56.543Z,21.37
2023-03-21T11:41:28.367Z,19.63
2023-03-21T11:43:57.119Z,19.87
2023-03-21T11:46:29.443Z,19.93
2023-03-21T11:48:57.387Z,16.10
2023-03-21T11:51:54.755Z,16.77
2023-03-21T11:54:38.312Z,13.70
2023-03-21T11:57:29.616Z,16.30
2023-03-21T12:00:14.633Z,17.83
2023-03-21T12:02:55.622Z,16.70
2023-03-21T12:05:26.522Z,13.93
2023-03-21T12:07:58.937Z,15.70
2023-03-21T12:10:34.353Z,19.73
2023-03-21T12:13:19.513Z,25.37
2023-03-21T12:16:07.353Z,14.17
2023-03-21T12:18:47.733Z,17.90
2023-03-21T12:21:32.730Z,15.10
2023-03-21T12:24:17.498Z,13.60
2023-03-21T12:26:59.084Z,18.90
2023-03-21T12:29:34.807Z,19.00
2023-03-21T12:32:13.870Z,21.37
2023-03-21T12:35:15.876Z,15.23
2023-03-21T12:38:10.450Z,18.83
2023-03-21T12:40:40.896Z,16.93
2023-03-21T12:43:42.696Z,18.43
2023-03-21T12:46:31.968Z,16.90
2023-03-21T12:49:02.929Z,19.00
2023-03-21T12:51:33.911Z,16.17
2023-03-21T12:54:21.583Z,17.93
2023-03-21T12:57:08.582Z,15.27
2023-03-21T12:59:41.331Z,16.53
2023-03-21T13:02:30.087Z,16.10
2023-03-21T13:05:01.479Z,18.37
2023-03-21T13:07:33.614Z,18.53
2023-03-21T13:10:02.209Z,11.90
2023-03-21T13:12:43.224Z,13.80
2023-03-21T13:15:32.648Z,17.83
2023-03-21T13:18:14.184Z,20.30
2023-03-21T13:20:45.104Z,16.60
2023-03-21T13:23:13.507Z,12.10
2023-03-21T13:25:46.987Z,12.77
2023-03-21T13:28:28.842Z,17.93
2023-03-21T13:31:19.833Z,18.97
2023-03-21T13:33:49.459Z,16.27
2023-03-21T13:36:22.995Z,16.70
2023-03-21T13:38:52.058Z,12.47
2023-03-21T13:41:33.073Z,15.90
2023-03-21T13:44:02.498Z,17.93
2023-03-21T13:46:28.936Z,15.10
2023-03-21T13:48:59.710Z,13.00
2023-03-21T13:51:29.577Z,17.80
2023-03-21T13:54:01.229Z,16.23
2023-03-21T13:56:30.413Z,14.93
2023-03-21T13:59:02.360Z,14.67
2023-03-21T14:02:13.404Z,14.20
2023-03-21T14:04:53.635Z,14.00
2023-03-21T14:07:31.068Z,16.23
2023-03-21T14:10:06.400Z,12.77
2023-03-21T14:12:42.398Z,12.10
2023-03-21T14:15:18.711Z,12.03
2023-03-21T14:18:10.937Z,17.97
2023-03-21T14:20:56.236Z,12.93
2023-03-21T14:23:24.261Z,16.00
2023-03-21T14:25:51.415Z,15.80
2023-03-21T14:28:26.251Z,15.90
2023-03-21T14:30:56.138Z,13.27
2023-03-21T14:33:29.128Z,14.37
2023-03-21T14:35:59.280Z,14.90
2023-03-21T14:38:32.094Z,11.10
2023-03-21T14:40:58.957Z,11.60
2023-03-21T14:43:26.533Z,11.90
2023-03-21T14:45:55.844Z,13.67
2023-03-21T14:48:34.890Z,12.40
2023-03-21T14:51:04.641Z,13.90
2023-03-21T14:53:40.203Z,12.97
2023-03-21T14:56:10.798Z,13.00
2023-03-21T14:58:40.326Z,12.17
2023-03-21T15:01:13.792Z,13.23
2023-03-21T15:03:40.785Z,16.10
2023-03-21T15:06:13.819Z,13.77
2023-03-21T15:08:40.825Z,16.03
2023-03-21T15:11:12.762Z,17.43
2023-03-21T15:13:50.225Z,13.37
2023-03-21T15:16:17.560Z,15.23
2023-03-21T15:18:45.318Z,14.17
2023-03-21T15:21:27.665Z,18.70
2023-03-21T15:24:13.489Z,14.23
2023-03-21T15:26:40.590Z,15.10
2023-03-21T15:29:07.518Z,15.00
2023-03-21T15:31:40.313Z,15.93
2023-03-21T15:34:07.632Z,12.30
2023-03-21T15:36:37.721Z,15.03
2023-03-21T15:39:08.551Z,12.00
2023-03-21T15:41:35.382Z,11.83
2023-03-21T15:44:05.565Z,12.17
2023-03-21T15:46:50.443Z,12.70
2023-03-21T15:49:25.145Z,15.13
2023-03-21T15:52:02.833Z,11.57
2023-03-21T15:54:37.077Z,13.97
2023-03-21T15:57:19.835Z,11.10
2023-03-21T15:59:47.811Z,13.23
2023-03-21T16:02:23.222Z,15.13
2023-03-21T16:05:21.970Z,14.00
2023-03-21T16:07:48.746Z,16.80
2023-03-21T16:10:28.535Z,13.20
2023-03-21T16:12:55.325Z,12.10
2023-03-21T16:15:23.869Z,16.17
2023-03-21T16:17:58.578Z,15.53
2023-03-21T16:20:34.265Z,21.60
2023-03-21T16:23:01.405Z,16.77
2023-03-21T16:25:30.482Z,12.90
2023-03-21T16:27:57.290Z,13.33
2023-03-21T16:30:24.109Z,11.43
2023-03-21T16:32:51.014Z,18.40
2023-03-21T16:35:17.942Z,15.00
2023-03-21T16:37:47.037Z,14.73
2023-03-21T16:40:21.870Z,22.03
2023-03-21T16:42:48.397Z,14.10
2023-03-21T16:45:14.972Z,12.27
2023-03-21T16:47:41.523Z,11.83
2023-03-21T16:50:33.595Z,14.07
2023-03-21T16:53:00.742Z,12.07
2023-03-21T16:55:28.225Z,12.50
2023-03-21T16:57:55.700Z,12.50
2023-03-21T17:00:26.041Z,11.90
2023-03-21T17:02:54.707Z,13.50
2023-03-21T17:05:26.761Z,12.87
2023-03-21T17:07:54.682Z,16.97
2023-03-21T17:10:24.461Z,14.80
2023-03-21T17:12:51.006Z,23.50
2023-03-21T17:15:18.003Z,21.43
2023-03-21T17:17:44.877Z,18.10
2023-03-21T17:20:24.160Z,14.37
2023-03-21T17:22:50.917Z,12.40
2023-03-21T17:25:19.019Z,13.40
2023-03-21T17:27:46.312Z,13.20
2023-03-21T17:30:34.023Z,16.07
2023-03-21T17:33:00.939Z,16.17
2023-03-21T17:35:29.024Z,13.70
2023-03-21T17:37:58.458Z,12.27
2023-03-21T17:40:30.859Z,14.97
2023-03-21T17:42:59.262Z,16.87
2023-03-21T17:45:25.869Z,16.50
2023-03-21T17:47:52.730Z,20.70
2023-03-21T17:50:22.638Z,13.10
2023-03-21T17:52:50.868Z,17.47
2023-03-21T17:55:19.640Z,20.53
2023-03-21T17:57:46.970Z,14.67
2023-03-21T18:00:20.789Z,16.90
2023-03-21T18:02:47.794Z,13.30
2023-03-21T18:05:14.561Z,12.87
2023-03-21T18:10:28.582Z,15.77
2023-03-21T18:12:56.337Z,12.93
2023-03-21T18:15:31.092Z,13.80
2023-03-21T18:17:58.453Z,17.63
2023-03-21T18:20:50.305Z,13.90
2023-03-21T18:23:15.969Z,15.77
2023-03-21T18:25:43.004Z,14.97
2023-03-21T18:28:11.854Z,15.10
2023-03-21T18:31:00.225Z,18.33
2023-03-21T18:33:27.235Z,16.50
2023-03-21T18:35:59.131Z,13.63
2023-03-21T18:38:29.229Z,18.50
2023-03-21T18:40:56.294Z,18.10
2023-03-21T18:46:10.374Z,19.13
2023-03-21T18:48:37.226Z,12.13
2023-03-21T18:51:04.338Z,18.00
2023-03-21T18:53:31.955Z,13.93
2023-03-21T18:55:58.516Z,13.40
2023-03-21T18:58:25.413Z,16.87
2023-03-21T19:00:53.631Z,14.70
2023-03-21T19:03:34.117Z,13.87
2023-03-21T19:06:04.188Z,17.60
2023-03-21T19:08:31.242Z,16.03
2023-03-21T19:11:00.166Z,13.37
2023-03-21T19:13:28.300Z,13.53
2023-03-21T19:15:56.169Z,14.87
2023-03-21T19:18:53.344Z,14.17
2023-03-21T19:21:09.634Z,53.23
2023-03-21T19:24:07.914Z,29.93
2023-03-21T19:26:23.953Z,16.70
2023-03-21T19:28:50.569Z,19.00
2023-03-21T19:31:17.980Z,17.00
2023-03-21T19:33:45.028Z,16.40
2023-03-21T19:36:21.543Z,16.10
2023-03-21T19:38:48.973Z,14.60
2023-03-21T19:41:15.539Z,14.07
2023-03-21T19:43:53.124Z,15.83
2023-03-21T19:46:24.484Z,14.17
2023-03-21T19:48:51.142Z,14.00
2023-03-21T19:51:28.360Z,12.93
2023-03-21T19:53:55.794Z,15.30
2023-03-21T19:56:26.257Z,13.77
2023-03-21T19:58:53.927Z,16.67
2023-03-21T20:01:20.672Z,13.23
2023-03-21T20:03:47.322Z,13.20
2023-03-21T20:06:13.793Z,15.00
2023-03-21T20:09:13.685Z,39.83
2023-03-21T20:11:27.328Z,34.77
2023-03-21T20:13:54.224Z,17.73
2023-03-21T20:16:21.448Z,13.00
2023-03-21T20:18:48.330Z,11.30
2023-03-21T20:21:18.099Z,14.37
2023-03-21T20:23:51.035Z,12.97
2023-03-21T20:26:18.502Z,15.27
2023-03-21T20:29:00.209Z,15.23
2023-03-21T20:31:34.748Z,13.20
2023-03-21T20:34:01.607Z,12.43
2023-03-21T20:36:43.902Z,12.80
2023-03-21T20:39:11.017Z,12.77
2023-03-21T20:41:38.187Z,14.17
2023-03-21T20:46:51.733Z,17.87
2023-03-21T20:49:20.089Z,22.63
2023-03-21T20:52:47.829Z,15.27
2023-03-21T20:54:34.865Z,17.63
2023-03-21T20:57:01.598Z,13.57
2023-03-21T20:59:29.206Z,13.00
2023-03-21T21:01:57.420Z,15.00
2023-03-21T21:04:44.157Z,14.27
2023-03-21T21:07:15.912Z,12.67
2023-03-21T21:09:44.078Z,13.60
2023-03-21T21:12:11.515Z,14.20
2023-03-21T21:14:38.990Z,15.37
2023-03-21T21:17:23.153Z,14.73
2023-03-21T21:19:50.950Z,15.93
2023-03-21T21:22:17.740Z,28.03
2023-03-21T21:24:44.770Z,22.60
2023-03-21T21:27:11.914Z,16.40
2023-03-21T21:29:38.525Z,20.60
2023-03-21T21:32:05.358Z,20.03
2023-03-21T21:34:32.243Z,20.27
2023-03-21T21:37:02.047Z,22.70
2023-03-21T21:39:31.413Z,23.33
2023-03-21T21:41:57.920Z,20.43
2023-03-21T21:44:24.401Z,19.20
2023-03-21T21:46:51.369Z,15.13
2023-03-21T21:49:18.004Z,16.13
2023-03-21T21:51:47.690Z,12.57
2023-03-21T21:54:18.137Z,10.43
2023-03-21T21:56:48.380Z,11.53
2023-03-21T21:59:18.287Z,12.33
2023-03-21T22:01:46.610Z,15.83
2023-03-21T22:04:14.513Z,13.80
2023-03-21T22:06:42.258Z,15.80
2023-03-21T22:09:09.219Z,14.83
2023-03-21T22:11:36.131Z,14.40
2023-03-21T22:14:03.148Z,17.90
2023-03-21T22:16:29.836Z,16.30
2023-03-21T22:18:56.400Z,15.90
2023-03-21T22:21:23.150Z,14.80
2023-03-21T22:23:49.600Z,14.53
2023-03-21T22:26:16.299Z,11.97
2023-03-21T22:28:43.516Z,13.37
2023-03-21T22:31:13.482Z,11.23
2023-03-21T22:33:40.050Z,12.83
2023-03-21T22:36:07.008Z,13.00
2023-03-21T22:38:34.643Z,13.73
2023-03-21T22:41:04.958Z,12.63
2023-03-21T22:43:35.246Z,15.67
2023-03-21T22:46:03.122Z,13.63
2023-03-21T22:48:30.847Z,10.80
2023-03-21T22:50:59.017Z,14.57
2023-03-21T22:53:25.757Z,12.13
2023-03-21T22:55:52.299Z,11.80
2023-03-21T22:58:19.166Z,13.03
2023-03-21T23:00:45.925Z,14.40
2023-03-21T23:03:14.525Z,12.50
2023-03-21T23:05:41.704Z,11.90
2023-03-21T23:08:08.581Z,14.00
2023-03-21T23:10:38.368Z,12.37
2023-03-21T23:13:05.084Z,13.90
2023-03-21T23:15:31.610Z,11.23
2023-03-21T23:17:58.109Z,12.70
2023-03-21T23:20:24.732Z,13.70
2023-03-21T23:22:51.225Z,15.30
2023-03-21T23:25:20.457Z,14.43
2023-03-21T23:27:47.269Z,13.07
2023-03-21T23:30:13.836Z,13.47
2023-03-21T23:32:40.384Z,15.50
2023-03-21T23:35:07.596Z,13.90
2023-03-21T23:37:34.105Z,13.37
2023-03-21T23:40:00.848Z,16.63
2023-03-21T23:42:29.239Z,12.77
2023-03-21T23:44:55.789Z,12.33
2023-03-21T23:47:22.277Z,16.80
2023-03-21T23:49:49.994Z,13.07
2023-03-21T23:52:16.525Z,12.70
2023-03-21T23:54:43.179Z,15.83
2023-03-21T23:57:10.332Z,12.63
2023-03-21T23:59:36.754Z,15.77
